Time;durP1;ratioP1;P1;durP2;ratioP2;P2;SDS_P1;SDS_P2;PMS_P1;PMS_P2;Temp;Humidity;BMP_temperature;BMP_pressure;BME280_temperature;BME280_humidity;BME280_pressure;Samples;Min_cycle;Max_cycle;Signal;HPM_P1;HPM_P2
2022/02/21 00:02:19;;;;;;;5.50;3.37;;;;;;;6.59;71.50;97516.47;2155076;83;21415;-83
2022/02/21 00:05:20;;;;;;;5.17;3.03;;;;;;;6.63;71.21;97509.15;2154684;81;21366;-83
2022/02/21 00:08:20;;;;;;;7.90;3.73;;;;;;;6.65;71.04;97495.77;2154656;83;20966;-81
2022/02/21 00:11:21;;;;;;;6.40;3.60;;;;;;;6.67;70.82;97491.88;2154754;83;20912;-82
2022/02/21 00:14:22;;;;;;;6.23;3.27;;;;;;;6.71;70.86;97489.31;2154554;82;20995;-82
2022/02/21 00:17:22;;;;;;;8.67;3.40;;;;;;;6.74;70.75;97484.57;2153399;83;21049;-82
2022/02/21 00:20:23;;;;;;;7.57;3.50;;;;;;;6.76;70.66;97474.20;2154166;83;20983;-82
2022/02/21 00:23:23;;;;;;;7.27;3.63;;;;;;;6.76;70.55;97464.70;2152921;83;20950;-82
2022/02/21 00:26:24;;;;;;;6.03;3.77;;;;;;;6.80;70.33;97464.28;2153975;83;20967;-82
2022/02/21 00:29:24;;;;;;;5.77;3.60;;;;;;;6.84;70.35;97446.15;2154514;83;20964;-81
2022/02/21 00:32:25;;;;;;;4.97;2.93;;;;;;;6.86;70.12;97443.13;2154499;83;20912;-81
2022/02/21 00:35:25;;;;;;;6.20;2.97;;;;;;;6.88;70.09;97440.11;2154656;83;20963;-81
2022/02/21 00:38:26;;;;;;;6.20;3.30;;;;;;;6.90;69.89;97437.09;2154426;83;20932;-81
2022/02/21 00:41:26;;;;;;;8.10;3.83;;;;;;;6.94;69.86;97432.81;2154397;83;21308;-82
2022/02/21 00:44:27;;;;;;;4.90;3.20;;;;;;;6.97;69.86;97427.21;2153551;83;21053;-83
2022/02/21 00:47:27;;;;;;;4.77;2.90;;;;;;;7.01;69.59;97419.88;2152827;83;21066;-82
2022/02/21 00:50:28;;;;;;;3.60;2.87;;;;;;;7.05;69.62;97412.09;2153464;83;20955;-83
2022/02/21 00:53:28;;;;;;;142.37;111.50;;;;;;;7.09;69.20;97400.87;2153969;83;20952;-83
2022/02/21 00:56:29;;;;;;;23.03;17.67;;;;;;;8.61;78.60;97402.16;2092554;85;21017;-83
2022/02/21 00:59:29;;;;;;;6.40;4.20;;;;;;;10.34;64.63;97379.77;2154204;82;21218;-82
2022/02/21 01:02:32;;;;;;;6.40;2.90;;;;;;;9.57;63.95;97385.64;2153732;83;20983;-82
2022/02/21 01:05:34;;;;;;;4.23;2.43;;;;;;;8.83;63.80;97381.72;2153532;82;21063;-82
2022/02/21 01:08:35;;;;;;;9.13;2.90;;;;;;;8.40;64.92;97384.02;2153708;83;21011;-82
2022/02/21 01:11:35;;;;;;;6.60;3.27;;;;;;;8.11;65.68;97372.36;2153966;83;21026;-83
2022/02/21 01:14:36;;;;;;;3.90;2.33;;;;;;;7.93;66.06;97370.66;2154552;83;20936;-82
2022/02/21 01:17:36;;;;;;;3.53;2.43;;;;;;;7.80;66.46;97365.01;2154526;83;20992;-82
2022/02/21 01:20:37;;;;;;;3.90;2.53;;;;;;;7.74;66.58;97355.48;2154769;83;20919;-83
2022/02/21 01:23:40;;;;;;;3.77;2.23;;;;;;;7.68;66.60;97347.70;2154536;83;20967;-82
2022/02/21 01:26:40;;;;;;;4.50;2.40;;;;;;;7.63;67.02;97341.21;2154524;82;21000;-82
2022/02/21 01:29:40;;;;;;;3.40;2.50;;;;;;;7.61;66.94;97341.64;2154551;83;21027;-82
2022/02/21 01:32:41;;;;;;;6.10;2.43;;;;;;;7.60;67.06;97332.13;2154556;83;20925;-82
2022/02/21 01:35:41;;;;;;;2.97;2.20;;;;;;;7.57;67.20;97316.98;2154708;83;20904;-82
2022/02/21 01:38:42;;;;;;;3.57;2.27;;;;;;;7.56;67.15;97311.36;2154344;83;21223;-83
2022/02/21 01:41:42;;;;;;;41.33;31.80;;;;;;;7.56;67.27;97305.73;2154404;83;20944;-84
2022/02/21 01:44:45;;;;;;;147.10;112.70;;;;;;;7.67;75.84;97300.09;2084355;85;21049;-84
2022/02/21 01:47:45;;;;;;;92.77;74.30;;;;;;;9.88;77.11;97281.14;2154297;82;21375;-83
2022/02/21 01:50:46;;;;;;;81.30;65.97;;;;;;;11.52;70.98;97265.06;2092605;85;20958;-83
2022/02/21 01:53:47;;;;;;;45.23;37.87;;;;;;;12.71;67.29;97253.64;2154772;82;20935;-83
2022/02/21 01:56:47;;;;;;;8.03;5.87;;;;;;;13.17;67.06;97250.04;2093109;85;20947;-83
2022/02/21 01:59:48;;;;;;;3.93;2.53;;;;;;;13.02;55.32;97238.12;2093055;84;20995;-82
2022/02/21 02:02:48;;;;;;;4.93;2.30;;;;;;;11.38;55.60;97240.91;2093347;85;20923;-82
2022/02/21 02:05:49;;;;;;;3.00;2.13;;;;;;;10.25;57.72;97239.04;2111743;83;20990;-83
2022/02/21 02:08:49;;;;;;;3.73;1.93;;;;;;;9.51;59.08;97229.36;2136622;83;20958;-83
2022/02/21 02:11:50;;;;;;;3.07;2.10;;;;;;;9.03;60.47;97222.85;2076592;86;20965;-82
2022/02/21 02:14:51;;;;;;;4.60;2.13;;;;;;;8.71;61.62;97223.09;2136427;83;21357;-83
2022/02/21 02:17:51;;;;;;;3.00;2.00;;;;;;;8.50;62.40;97217.98;2135950;83;21392;-83
2022/02/21 02:20:52;;;;;;;3.67;2.03;;;;;;;8.37;63.27;97225.43;2075379;86;20937;-83
2022/02/21 02:23:52;;;;;;;2.87;1.70;;;;;;;8.24;63.96;97205.97;2135197;83;21005;-83
2022/02/21 02:26:53;;;;;;;2.23;1.90;;;;;;;8.13;64.67;97192.16;2135799;83;20902;-82
2022/02/21 02:29:54;;;;;;;3.10;2.00;;;;;;;8.06;64.99;97193.50;2075734;86;20973;-84
2022/02/21 02:32:54;;;;;;;2.73;1.90;;;;;;;8.00;65.44;97191.79;2135895;83;21301;-84
2022/02/21 02:35:55;;;;;;;3.30;2.10;;;;;;;7.93;65.84;97181.86;2135720;83;21314;-84
2022/02/21 02:38:56;;;;;;;3.10;2.00;;;;;;;7.87;66.41;97168.89;2075940;86;21276;-83
2022/02/21 02:41:56;;;;;;;3.23;2.00;;;;;;;7.82;66.63;97165.89;2136100;83;21460;-83
2022/02/21 02:44:56;;;;;;;3.00;1.77;;;;;;;7.81;66.89;97162.86;2135741;83;21052;-83
2022/02/21 02:47:57;;;;;;;4.57;2.10;;;;;;;7.78;67.08;97149.42;2075168;85;21055;-81
2022/02/21 02:50:57;;;;;;;2.70;1.77;;;;;;;7.76;67.49;97141.20;2136177;83;20977;-83
2022/02/21 02:53:58;;;;;;;44.33;35.37;;;;;;;7.75;67.64;97139.48;2136164;83;20935;-83
2022/02/21 02:56:58;;;;;;;73.90;56.40;;;;;;;7.79;72.86;97139.45;2090758;85;20974;-84
2022/02/21 02:59:59;;;;;;;3.80;2.93;;;;;;;9.29;71.89;97124.12;2136715;83;20922;-83
2022/02/21 03:02:59;;;;;;;3.20;1.60;;;;;;;9.32;63.80;97120.19;2136451;83;20930;-83
2022/02/21 03:06:00;;;;;;;2.70;1.80;;;;;;;8.79;64.57;97123.73;2075826;86;21044;-83
2022/02/21 03:09:01;;;;;;;1.50;1.40;;;;;;;8.43;65.61;97127.89;2136240;83;20974;-83
2022/02/21 03:12:01;;;;;;;1.63;1.40;;;;;;;8.19;66.81;97114.59;2135549;83;21349;-82
2022/02/21 03:15:02;;;;;;;2.27;1.50;;;;;;;8.04;67.32;97119.88;2075584;85;20940;-81
2022/02/21 03:18:02;;;;;;;1.70;1.50;;;;;;;7.91;68.33;97116.05;2135103;83;21088;-83
2022/02/21 03:21:03;;;;;;;1.97;1.40;;;;;;;7.81;68.82;97112.21;2135441;83;21001;-79
2022/02/21 03:24:03;;;;;;;3.53;1.53;;;;;;;7.71;69.52;97112.66;2075436;86;20957;-84
2022/02/21 03:27:04;;;;;;;1.90;1.60;;;;;;;7.62;70.25;97104.91;2135583;83;20973;-82
2022/02/21 03:30:04;;;;;;;1.90;1.30;;;;;;;7.56;71.03;97111.42;2135147;83;21365;-83
2022/02/21 03:33:05;;;;;;;1.83;1.43;;;;;;;7.46;72.19;97093.72;2075622;85;20949;-82
2022/02/21 03:36:05;;;;;;;3.47;1.50;;;;;;;7.38;72.50;97094.19;2135468;83;20998;-83
2022/02/21 03:39:06;;;;;;;2.43;1.90;;;;;;;7.30;73.21;97088.16;2135757;83;20950;-83
2022/02/21 03:42:07;;;;;;;2.93;1.30;;;;;;;7.23;73.91;97074.77;2075403;85;20941;-82
2022/02/21 03:45:07;;;;;;;3.07;2.00;;;;;;;7.16;74.50;97071.77;2135205;83;20970;-81
2022/02/21 03:48:07;;;;;;;3.33;1.90;;;;;;;7.12;74.33;97057.08;2135201;83;20998;-83
2022/02/21 03:51:08;;;;;;;2.47;2.00;;;;;;;7.08;75.02;97049.73;2075619;86;20973;-84
2022/02/21 03:54:08;;;;;;;2.07;1.50;;;;;;;7.07;75.13;97054.92;2135779;83;21301;-83
2022/02/21 03:57:09;;;;;;;3.70;1.40;;;;;;;7.07;75.12;97044.12;2135628;83;20986;-82
2022/02/21 04:00:13;;;;;;;1.97;1.30;;;;;;;7.07;75.36;97041.95;2075997;85;20996;-83
2022/02/21 04:03:13;;;;;;;2.67;1.37;;;;;;;7.07;75.32;97017.31;2136086;83;21255;-84
2022/02/21 04:06:14;;;;;;;2.00;1.27;;;;;;;7.07;75.39;97027.69;2116825;82;21007;-82
2022/02/21 04:09:14;;;;;;;3.53;1.40;;;;;;;7.05;75.11;97009.97;2148311;83;20952;-83
2022/02/21 04:12:15;;;;;;;2.63;1.43;;;;;;;7.04;75.83;97009.11;2148350;83;20901;-82
2022/02/21 04:15:16;;;;;;;1.50;1.40;;;;;;;7.03;75.64;97019.91;2087569;84;21021;-83
2022/02/21 04:18:16;;;;;;;1.40;1.23;;;;;;;6.99;75.59;96997.45;2088007;84;21038;-84
2022/02/21 04:21:17;;;;;;;1.67;1.47;;;;;;;7.00;75.72;96991.83;2087607;84;21018;-83
2022/02/21 04:24:17;;;;;;;1.63;1.20;;;;;;;7.01;76.03;96990.95;2088215;85;20994;-84
2022/02/21 04:27:18;;;;;;;2.40;1.43;;;;;;;7.00;75.44;96969.34;2087757;84;21010;-83
2022/02/21 04:30:18;;;;;;;5.07;1.67;;;;;;;7.03;75.58;96971.06;2087316;84;20958;-83
2022/02/21 04:33:19;;;;;;;2.83;1.40;;;;;;;7.05;75.50;96976.24;2087873;85;20951;-82
2022/02/21 04:36:19;;;;;;;2.87;1.10;;;;;;;7.06;75.28;96971.05;2087430;84;21032;-84
2022/02/21 04:39:20;;;;;;;2.70;1.50;;;;;;;7.06;75.09;96964.99;2087074;84;20951;-82
2022/02/21 04:42:20;;;;;;;1.73;1.27;;;;;;;7.07;75.12;96952.02;2086573;84;21006;-83
2022/02/21 04:45:21;;;;;;;2.07;1.40;;;;;;;7.06;74.92;96957.21;2087200;84;21018;-83
2022/02/21 04:48:22;;;;;;;1.93;1.20;;;;;;;7.04;75.03;96942.95;2087798;84;21054;-83
2022/02/21 04:51:22;;;;;;;2.90;1.50;;;;;;;7.03;75.37;96929.55;2087448;84;20927;-83
2022/02/21 04:54:22;;;;;;;2.33;1.73;;;;;;;7.00;75.12;96914.00;2087859;84;20978;-82
2022/02/21 04:57:23;;;;;;;2.60;1.80;;;;;;;6.99;75.30;96907.95;2086442;84;21401;-82
2022/02/21 05:00:24;;;;;;;1.90;1.50;;;;;;;6.99;75.35;96904.06;2084415;84;21513;-82
2022/02/21 05:03:24;;;;;;;1.30;1.20;;;;;;;6.99;75.16;96901.47;2085667;85;21018;-81
2022/02/21 05:06:25;;;;;;;1.80;1.60;;;;;;;6.97;75.46;96898.02;2086593;84;21022;-82
2022/02/21 05:09:25;;;;;;;2.30;1.60;;;;;;;6.97;75.46;96882.89;2086347;84;20955;-81
2022/02/21 05:12:26;;;;;;;1.83;1.40;;;;;;;6.96;75.56;96885.92;2085496;84;21030;-82
2022/02/21 05:15:26;;;;;;;3.50;1.57;;;;;;;6.95;75.94;96879.02;2086104;84;21002;-81
2022/02/21 05:18:27;;;;;;;2.70;1.50;;;;;;;6.95;76.06;96885.49;2086009;84;20999;-81
2022/02/21 05:21:28;;;;;;;4.30;1.53;;;;;;;6.95;76.19;96880.30;2085051;84;21381;-81
2022/02/21 05:24:28;;;;;;;2.87;1.87;;;;;;;6.98;76.21;96875.10;2085341;84;21069;-81
2022/02/21 05:27:29;;;;;;;2.17;1.60;;;;;;;6.98;75.89;96877.70;2086453;84;20983;-81
2022/02/21 05:30:32;;;;;;;2.73;1.80;;;;;;;6.99;76.20;96871.64;2086280;84;21037;-80
2022/02/21 05:33:32;;;;;;;4.30;2.97;;;;;;;7.02;76.07;96874.65;2085320;84;21479;-81
2022/02/21 05:36:33;;;;;;;4.73;1.97;;;;;;;7.03;76.16;96882.86;2084524;84;20998;-82
2022/02/21 05:39:33;;;;;;;1.87;1.57;;;;;;;7.05;76.11;96878.95;2085148;84;21441;-82
2022/02/21 05:42:34;;;;;;;3.07;1.87;;;;;;;7.07;75.90;96877.22;2084679;84;21269;-79
2022/02/21 05:45:37;;;;;;;3.43;1.97;;;;;;;7.09;75.88;96870.28;2084289;84;21126;-79
2022/02/21 05:48:38;;;;;;;4.00;2.37;;;;;;;7.10;76.22;96864.23;2084466;84;21121;-80
2022/02/21 05:51:39;;;;;;;4.60;2.33;;;;;;;7.13;75.98;96884.53;2085110;84;21058;-80
2022/02/21 05:54:39;;;;;;;7.23;2.80;;;;;;;7.15;76.41;96878.03;2085738;84;20990;-80
2022/02/21 05:57:40;;;;;;;9.20;3.10;;;;;;;7.14;76.55;96889.28;2086107;84;20959;-80
2022/02/21 06:00:46;;;;;;;5.63;2.47;;;;;;;7.15;76.40;96890.57;2085367;85;21408;-80
2022/02/21 06:03:47;;;;;;;3.83;2.27;;;;;;;7.16;76.58;96889.70;2145552;83;21074;-82
2022/02/21 06:06:47;;;;;;;5.70;2.97;;;;;;;7.15;77.04;96884.09;2147759;81;21015;-81
2022/02/21 06:09:48;;;;;;;4.23;2.20;;;;;;;7.14;77.03;96875.87;2151013;83;20967;-80
2022/02/21 06:12:49;;;;;;;4.83;2.30;;;;;;;7.14;77.21;96871.13;2151216;83;20975;-82
2022/02/21 06:15:49;;;;;;;5.67;2.10;;;;;;;7.12;77.80;96868.97;2152836;83;20951;-81
2022/02/21 06:18:50;;;;;;;5.97;2.63;;;;;;;7.08;77.97;96864.23;2152834;83;21030;-81
2022/02/21 06:21:50;;;;;;;8.73;2.67;;;;;;;7.08;78.48;96855.59;2152078;83;20971;-82
2022/02/21 06:24:51;;;;;;;5.27;2.60;;;;;;;7.08;78.57;96858.19;2150990;83;21049;-81
2022/02/21 06:27:52;;;;;;;4.17;2.47;;;;;;;7.06;78.51;96856.90;2151486;83;20943;-78
2022/02/21 06:30:52;;;;;;;5.73;2.50;;;;;;;7.06;78.72;96852.14;2152008;83;21102;-81
2022/02/21 06:33:53;;;;;;;4.33;2.70;;;;;;;7.07;78.58;96847.38;2152230;83;21003;-79
2022/02/21 06:36:53;;;;;;;3.80;2.23;;;;;;;7.08;78.68;96836.13;2152674;83;20940;-79
2022/02/21 06:39:53;;;;;;;3.87;2.23;;;;;;;7.07;78.61;96832.68;2151337;83;21019;-81
2022/02/21 06:42:54;;;;;;;4.47;2.90;;;;;;;7.09;78.46;96830.94;2151721;83;20959;-79
2022/02/21 06:45:55;;;;;;;5.23;2.67;;;;;;;7.08;78.91;96824.02;2152773;83;20975;-80
2022/02/21 06:51:57;;;;;;;4.60;2.67;;;;;;;7.16;78.82;96834.35;2137103;83;20990;-81
2022/02/21 06:54:58;;;;;;;5.07;2.73;;;;;;;7.16;78.65;96822.23;2153381;83;21007;-79
2022/02/21 06:57:59;;;;;;;3.90;2.50;;;;;;;7.18;78.49;96820.50;2152281;83;21422;-82
2022/02/21 07:01:01;;;;;;;5.57;2.50;;;;;;;7.20;78.02;96825.23;2134559;83;21038;-82
2022/02/21 07:04:02;;;;;;;4.67;2.57;;;;;;;7.22;78.20;96820.03;2152455;83;20979;-80
2022/02/21 07:07:02;;;;;;;4.07;2.80;;;;;;;7.23;78.13;96816.56;2163251;81;21022;-82
2022/02/21 07:10:03;;;;;;;4.43;2.70;;;;;;;7.24;78.02;96803.58;2182179;82;21425;-80
2022/02/21 07:13:03;;;;;;;4.90;2.53;;;;;;;7.28;77.44;96806.58;2181479;82;21442;-82
2022/02/21 07:16:06;;;;;;;6.50;2.47;;;;;;;7.34;77.24;96809.56;2180779;82;21025;-82
2022/02/21 07:19:07;;;;;;;6.37;2.43;;;;;;;7.39;76.85;96811.69;2181394;82;21009;-81
2022/02/21 07:22:08;;;;;;;6.33;4.23;;;;;;;7.43;76.57;96809.48;2182437;82;21053;-81
2022/02/21 07:25:08;;;;;;;4.27;3.07;;;;;;;7.47;76.23;96804.70;2181510;82;21365;-82
2022/02/21 07:28:09;;;;;;;3.70;2.30;;;;;;;7.52;75.73;96805.52;2181722;82;21353;-82
2022/02/21 07:31:09;;;;;;;6.33;3.13;;;;;;;7.60;75.27;96802.41;2181667;82;20974;-83
2022/02/21 07:34:10;;;;;;;6.23;2.37;;;;;;;7.67;74.78;96791.53;2182541;82;20978;-82
2022/02/21 07:37:10;;;;;;;4.23;2.40;;;;;;;7.76;74.82;96808.77;2180956;82;20942;-83
2022/02/21 07:40:11;;;;;;;3.97;2.30;;;;;;;7.81;74.59;96809.17;2180691;82;21001;-84
2022/02/21 07:43:12;;;;;;;2.83;2.10;;;;;;;7.85;73.68;96797.88;2181459;82;21045;-84
2022/02/21 07:46:14;;;;;;;3.60;2.40;;;;;;;7.90;73.73;96798.69;2161574;82;21006;-83
2022/02/21 07:49:15;;;;;;;4.57;2.10;;;;;;;7.94;73.52;96794.33;2181423;82;21033;-84
2022/02/21 07:52:15;;;;;;;4.07;2.43;;;;;;;7.96;73.51;96792.13;2182170;82;20998;-83
2022/02/21 07:55:16;;;;;;;3.37;2.00;;;;;;;7.98;73.24;96796.88;2182668;82;20969;-83
2022/02/21 07:58:16;;;;;;;3.00;2.50;;;;;;;8.02;72.97;96778.22;2182372;82;20958;-82
2022/02/21 08:01:17;;;;;;;3.87;2.20;;;;;;;8.07;72.24;96779.02;2181200;82;21472;-80
2022/02/21 08:04:17;;;;;;;2.43;1.73;;;;;;;8.12;72.41;96779.83;2181960;82;21409;-81
2022/02/21 08:07:18;;;;;;;4.10;2.17;;;;;;;8.21;72.34;96784.92;2170710;81;21070;-81
2022/02/21 08:10:18;;;;;;;3.97;2.83;;;;;;;8.26;72.18;96769.28;2151328;83;21029;-82
2022/02/21 08:13:19;;;;;;;63.17;32.30;;;;;;;8.33;71.45;96771.36;2151167;83;21022;-81
2022/02/21 08:16:19;;;;;;;121.67;54.13;;;;;;;8.37;71.58;96761.37;2151351;83;21671;-81
2022/02/21 08:19:20;;;;;;;54.87;28.17;;;;;;;8.43;71.31;96762.59;2151050;83;21417;-81
2022/02/21 08:22:20;;;;;;;29.27;16.63;;;;;;;8.47;71.20;96757.34;2151610;83;21002;-80
2022/02/21 08:25:21;;;;;;;12.00;7.70;;;;;;;8.51;71.14;96760.76;2089507;85;21010;-81
2022/02/21 08:28:23;;;;;;;93.77;47.63;;;;;;;8.54;71.39;96768.52;2089162;85;21727;-82
2022/02/21 08:31:23;;;;;;;65.67;34.97;;;;;;;8.57;71.35;96763.28;2150186;82;21004;-80
2022/02/21 08:34:24;;;;;;;18.20;10.87;;;;;;;8.59;71.14;96756.31;2150051;83;20951;-80
2022/02/21 08:37:25;;;;;;;15.90;7.40;;;;;;;8.61;71.23;96764.95;2088921;85;21038;-81
2022/02/21 08:40:26;;;;;;;5.80;3.63;;;;;;;8.64;71.46;96757.11;2089296;85;20986;-77
2022/02/21 08:43:28;;;;;;;10.23;3.20;;;;;;;8.67;71.25;96764.02;2089222;84;21397;-81
2022/02/21 08:46:28;;;;;;;6.07;3.87;;;;;;;8.68;70.94;96760.13;2151491;83;21086;-81
2022/02/21 08:49:29;;;;;;;8.10;4.23;;;;;;;8.70;70.72;96757.06;2150833;83;21434;-81
2022/02/21 08:52:29;;;;;;;5.60;3.20;;;;;;;8.76;70.78;96752.21;2134342;83;21414;-80
2022/02/21 08:55:30;;;;;;;6.17;3.20;;;;;;;8.81;70.37;96755.16;2150406;83;21007;-79
2022/02/21 08:58:30;;;;;;;7.50;2.80;;;;;;;8.84;70.14;96746.02;2149399;83;21026;-80
2022/02/21 09:01:42;;;;;;;3.97;2.70;;;;;;;8.90;69.90;96752.42;2150903;83;20978;-81
2022/02/21 09:04:40;;;;;;;5.40;3.03;;;;;;;9.00;69.87;96758.35;2151563;82;21370;-82
2022/02/21 09:07:41;;;;;;;5.73;3.37;;;;;;;9.09;69.57;96766.45;2151262;81;20999;-81
2022/02/21 09:10:41;;;;;;;4.73;2.83;;;;;;;9.12;69.52;96759.47;2151009;83;20999;-80
2022/02/21 09:13:42;;;;;;;5.43;3.03;;;;;;;9.14;69.42;96755.09;2151020;83;20998;-82
2022/02/21 09:16:42;;;;;;;7.30;3.83;;;;;;;9.10;69.29;96761.67;2151169;83;20943;-80
2022/02/21 09:19:44;;;;;;;5.70;3.27;;;;;;;9.07;69.16;96761.72;2150490;83;21034;-82
2022/02/21 09:22:45;;;;;;;5.17;2.97;;;;;;;9.06;69.39;96771.27;2151012;83;20994;-80
2022/02/21 09:25:46;;;;;;;9.70;3.53;;;;;;;9.06;68.96;96762.16;2151057;83;20998;-81
2022/02/21 09:28:47;;;;;;;7.57;3.50;;;;;;;9.04;68.83;96769.58;2150572;83;20963;-82
2022/02/21 09:31:47;;;;;;;5.67;3.10;;;;;;;8.98;69.17;96776.17;2151205;83;20963;-80
2022/02/21 09:34:48;;;;;;;5.70;2.80;;;;;;;8.89;69.29;96776.73;2151866;83;21343;-81
2022/02/21 09:37:48;;;;;;;5.40;2.90;;;;;;;8.86;69.49;96768.97;2151880;83;21327;-81
2022/02/21 09:40:50;;;;;;;5.50;3.27;;;;;;;8.86;69.55;96783.27;2152156;83;21019;-77
2022/02/21 09:43:51;;;;;;;5.63;3.43;;;;;;;8.85;69.80;96780.70;2150964;83;21018;-78
2022/02/21 09:46:51;;;;;;;6.97;3.57;;;;;;;8.81;69.41;96779.88;2150513;83;20995;-81
2022/02/21 09:49:53;;;;;;;9.20;3.00;;;;;;;8.77;69.80;96779.50;2152938;83;21007;-81
2022/02/21 09:52:54;;;;;;;4.67;2.80;;;;;;;8.73;69.93;96792.13;2153455;83;20987;-82
2022/02/21 09:55:55;;;;;;;4.57;3.20;;;;;;;8.69;70.29;96790.89;2152576;83;21006;-81
2022/02/21 09:58:55;;;;;;;7.60;3.10;;;;;;;8.69;70.59;96806.50;2152564;83;20924;-81
2022/02/21 10:01:56;;;;;;;6.03;4.20;;;;;;;8.69;71.74;96809.09;2152291;83;20963;-81
2022/02/21 10:04:56;;;;;;;7.67;3.83;;;;;;;8.60;72.64;96819.15;2152719;83;21034;-82
2022/02/21 10:07:57;;;;;;;16.23;6.17;;;;;;;8.47;72.86;96839.68;2152264;81;21015;-83
2022/02/21 10:10:59;;;;;;;8.43;5.30;;;;;;;8.35;75.42;96871.02;2151844;83;20968;-80
2022/02/21 10:14:00;;;;;;;5.60;3.73;;;;;;;7.85;74.56;96912.17;2152199;83;21039;-83
2022/02/21 10:17:00;;;;;;;3.50;2.70;;;;;;;7.32;74.84;96927.66;2152061;83;20970;-82
2022/02/21 10:20:01;;;;;;;2.50;2.27;;;;;;;6.90;76.37;96932.60;2151850;83;21110;-82
2022/02/21 10:23:01;;;;;;;6.77;4.20;;;;;;;6.62;76.69;96935.73;2151303;83;20944;-78
2022/02/21 10:26:02;;;;;;;8.50;4.77;;;;;;;6.51;77.59;96926.27;2151221;83;21054;-82
2022/02/21 10:29:03;;;;;;;10.97;5.03;;;;;;;6.45;77.83;96922.39;2151312;83;21014;-83
2022/02/21 10:32:03;;;;;;;10.43;6.73;;;;;;;6.43;77.92;96918.95;2151003;83;20986;-81
2022/02/21 10:35:04;;;;;;;13.97;6.97;;;;;;;6.37;78.34;96922.41;2151691;83;20959;-82
2022/02/21 10:38:04;;;;;;;13.13;4.97;;;;;;;6.36;78.32;96912.91;2152064;83;20943;-83
2022/02/21 10:41:07;;;;;;;8.67;3.00;;;;;;;6.34;78.42;96912.05;2151075;83;20975;-81
2022/02/21 10:44:07;;;;;;;9.60;3.13;;;;;;;6.37;78.07;96915.50;2151527;82;21018;-79
2022/02/21 10:47:07;;;;;;;7.33;3.10;;;;;;;6.39;78.05;96929.31;2151616;83;20955;-79
2022/02/21 10:50:10;;;;;;;4.50;1.90;;;;;;;6.46;78.02;96918.94;2151111;83;21042;-82
2022/02/21 10:53:10;;;;;;;2.77;1.80;;;;;;;6.54;76.90;96893.86;2150529;83;20991;-82
2022/02/21 10:56:12;;;;;;;10.23;2.40;;;;;;;6.68;76.56;96892.08;2150424;83;20939;-83
2022/02/21 10:59:12;;;;;;;4.27;1.70;;;;;;;6.85;76.44;96892.86;2151643;82;21089;-83
2022/02/21 11:02:15;;;;;;;1.73;1.53;;;;;;;7.02;75.74;96889.78;2151765;83;20979;-82
2022/02/21 11:05:15;;;;;;;6.57;1.83;;;;;;;7.20;75.36;96882.33;2150915;83;21743;-83
2022/02/21 11:08:15;;;;;;;7.10;2.33;;;;;;;7.33;74.55;96892.19;2150801;81;21011;-82
2022/02/21 11:11:16;;;;;;;1.80;1.30;;;;;;;7.43;74.35;96904.23;2151102;83;21014;-80
2022/02/21 11:14:18;;;;;;;2.13;1.37;;;;;;;7.44;72.80;96896.88;2151667;83;21030;-83
2022/02/21 11:17:18;;;;;;;4.90;1.97;;;;;;;7.47;73.99;96898.15;2133461;83;21015;-81
2022/02/21 11:20:19;;;;;;;4.30;1.50;;;;;;;7.47;73.99;96898.15;2150201;83;21058;-80
2022/02/21 11:23:21;;;;;;;2.70;1.50;;;;;;;7.53;73.63;96904.59;2133167;83;21023;-82
2022/02/21 11:26:22;;;;;;;4.80;2.17;;;;;;;7.55;73.02;96914.97;2151357;83;20991;-82
2022/02/21 11:29:22;;;;;;;3.23;2.00;;;;;;;7.50;72.32;96930.58;2151587;83;21022;-83
2022/02/21 11:32:23;;;;;;;9.27;2.03;;;;;;;7.52;71.10;96931.43;2152179;83;21011;-82
2022/02/21 11:39:05;;;;;;;5.70;1.90;;;;;;;7.55;70.85;96931.84;2151946;83;21042;-83
2022/02/21 11:42:05;;;;;;;3.85;3.00;;;;;;;7.62;69.84;96930.93;2151756;83;21267;-81
2022/02/21 11:45:06;;;;;;;4.43;2.60;;;;;;;7.67;67.65;96948.64;2151084;83;21002;-82
2022/02/21 11:48:06;;;;;;;6.20;2.70;;;;;;;7.80;67.22;96933.83;2151824;83;20963;-82
2022/02/21 11:51:07;;;;;;;8.63;2.57;;;;;;;7.88;67.34;96939.86;2151685;83;20956;-81
2022/02/21 11:54:07;;;;;;;8.10;3.00;;;;;;;7.95;68.23;96951.92;2151696;83;20971;-83
2022/02/21 11:57:08;;;;;;;10.00;3.23;;;;;;;8.02;67.07;96967.89;2151056;83;20998;-80
2022/02/21 12:00:09;;;;;;;12.50;5.50;;;;;;;7.98;66.55;96960.98;2150882;83;20947;-81
2022/02/21 12:03:10;;;;;;;11.50;5.93;;;;;;;8.11;66.48;96953.52;2151126;83;20983;-82
2022/02/21 12:06:11;;;;;;;15.10;7.20;;;;;;;8.26;65.62;96938.22;2150852;83;21030;-81
2022/02/21 12:09:11;;;;;;;16.20;6.70;;;;;;;8.41;63.87;96952.84;2151725;81;21429;-84
2022/02/21 12:12:12;;;;;;;11.57;5.50;;;;;;;8.41;62.80;96947.20;2151823;83;20947;-82
2022/02/21 12:15:13;;;;;;;9.40;4.80;;;;;;;8.36;61.03;96957.23;2151969;83;21010;-82
2022/02/21 12:18:13;;;;;;;7.20;3.70;;;;;;;8.28;61.93;96990.62;2151551;83;21011;-81
2022/02/21 12:21:14;;;;;;;8.93;3.53;;;;;;;8.16;59.72;97010.22;2151970;83;20971;-83
2022/02/21 12:24:15;;;;;;;6.93;3.90;;;;;;;7.99;60.04;97030.27;2151142;83;21019;-82
2022/02/21 12:27:18;;;;;;;7.03;4.47;;;;;;;7.93;60.51;97025.98;2151583;83;21010;-82
2022/02/21 12:30:18;;;;;;;8.57;4.67;;;;;;;7.92;60.85;96998.27;2151020;83;21002;-82
2022/02/21 12:33:19;;;;;;;8.27;4.63;;;;;;;7.93;59.88;96986.14;2134597;83;20983;-81
2022/02/21 12:36:19;;;;;;;12.70;5.43;;;;;;;8.02;60.39;97032.84;2151671;83;21007;-81
2022/02/21 12:39:23;;;;;;;8.93;4.70;;;;;;;7.91;59.40;97017.77;2151517;83;21347;-80
2022/02/21 12:42:24;;;;;;;8.17;3.97;;;;;;;7.74;60.13;97019.58;2150742;82;21055;-75
2022/02/21 12:45:24;;;;;;;8.77;4.10;;;;;;;7.45;60.18;97041.80;2150459;83;21077;-83
2022/02/21 12:48:26;;;;;;;10.30;5.13;;;;;;;7.45;60.18;97041.80;2151816;83;21026;-82
2022/02/21 12:51:26;;;;;;;9.90;4.57;;;;;;;7.28;60.67;97030.20;2150568;83;20995;-82
2022/02/21 12:54:27;;;;;;;5.47;3.00;;;;;;;7.18;61.73;97053.16;2151787;83;20983;-82
2022/02/21 12:57:28;;;;;;;5.33;2.47;;;;;;;6.95;63.82;97106.41;2151399;83;20987;-81
2022/02/21 13:00:28;;;;;;;6.57;3.53;;;;;;;6.47;67.65;97137.08;2151351;82;21109;-84
2022/02/21 13:03:29;;;;;;;5.13;3.03;;;;;;;5.75;72.11;97163.63;2151761;83;20987;-84
2022/02/21 13:06:29;;;;;;;6.07;3.03;;;;;;;5.20;73.93;97186.16;2151011;83;21046;-83
2022/02/21 13:09:30;;;;;;;8.33;3.90;;;;;;;4.72;75.58;97210.38;2150181;81;21034;-84
2022/02/21 13:12:31;;;;;;;5.67;3.27;;;;;;;4.35;77.30;97210.45;2150543;83;20975;-83
2022/02/21 13:15:31;;;;;;;5.77;2.93;;;;;;;4.07;77.60;97170.53;2150494;83;21007;-81
2022/02/21 13:18:32;;;;;;;7.73;3.23;;;;;;;4.30;77.75;97176.36;2150654;83;20959;-82
2022/02/21 13:21:33;;;;;;;4.27;2.93;;;;;;;4.22;78.14;97185.33;2150502;83;21654;-80
2022/02/21 13:24:33;;;;;;;6.50;3.30;;;;;;;4.19;77.87;97178.84;2150510;83;20971;-83
2022/02/21 13:27:37;;;;;;;6.67;2.70;;;;;;;4.20;78.20;97184.87;2151013;83;21038;-80
2022/02/21 13:30:36;;;;;;;8.27;3.07;;;;;;;4.19;78.57;97178.84;2150203;83;21023;-81
2022/02/21 13:33:37;;;;;;;5.10;2.60;;;;;;;4.19;78.06;97180.13;2150655;83;21316;-81
2022/02/21 13:36:37;;;;;;;5.10;2.90;;;;;;;4.28;77.67;97182.80;2150352;83;21007;-82
2022/02/21 13:39:38;;;;;;;4.07;2.57;;;;;;;4.42;76.77;97187.70;2150593;83;21037;-83
2022/02/21 13:42:38;;;;;;;6.63;2.47;;;;;;;4.48;77.28;97192.93;2151013;83;21002;-82
2022/02/21 13:45:40;;;;;;;9.70;2.73;;;;;;;4.47;76.82;97212.30;2151088;83;20967;-82
2022/02/21 13:48:40;;;;;;;6.60;2.93;;;;;;;4.57;76.42;97199.03;2150773;83;21698;-81
2022/02/21 13:51:41;;;;;;;8.23;3.50;;;;;;;4.70;76.02;97188.81;2150508;83;20984;-80
2022/02/21 13:54:42;;;;;;;7.43;3.07;;;;;;;4.95;75.56;97192.45;2150695;83;21011;-78
2022/02/21 13:57:42;;;;;;;10.43;3.63;;;;;;;5.17;74.17;97198.65;2149903;83;20943;-81
2022/02/21 14:00:43;;;;;;;6.90;2.97;;;;;;;5.27;74.15;97195.30;2151661;83;21998;-81
2022/02/21 14:03:44;;;;;;;7.97;3.20;;;;;;;5.33;74.17;97178.52;2151670;83;20943;-82
2022/02/21 14:06:44;;;;;;;10.27;2.83;;;;;;;5.39;72.47;97183.73;2150586;83;21019;-82
2022/02/21 14:09:45;;;;;;;5.33;3.03;;;;;;;5.33;71.69;97199.22;2167306;82;21001;-81
2022/02/21 14:12:45;;;;;;;4.93;3.07;;;;;;;5.32;71.01;97198.78;2180197;82;21376;-80
2022/02/21 14:15:47;;;;;;;9.03;3.23;;;;;;;5.26;70.95;97222.02;2180866;82;20969;-80
2022/02/21 14:18:47;;;;;;;8.70;3.40;;;;;;;5.18;70.17;97212.45;2180180;82;21002;-80
2022/02/21 14:21:48;;;;;;;9.63;3.50;;;;;;;5.16;70.60;97205.97;2178672;82;21052;-79
2022/02/21 14:24:48;;;;;;;7.43;3.20;;;;;;;5.31;69.85;97213.00;2179461;82;21024;-80